sensor_id;sensor_type;location;lat;lon;timestamp;pressure;altitude;pressure_sealevel;temperature;humidity
1077;BME280;64114;48.726;9.370;2022-11-20T00:01:05;98250.91;;;7.64;100.00
1077;BME280;64114;48.726;9.370;2022-11-20T00:03:34;98245.59;;;7.42;100.00
1077;BME280;64114;48.726;9.370;2022-11-20T00:06:04;98225.06;;;7.31;100.00
1077;BME280;64114;48.726;9.370;2022-11-20T00:08:33;98248.88;;;7.32;100.00
1077;BME280;64114;48.726;9.370;2022-11-20T00:11:03;98236.84;;;7.17;100.00
1077;BME280;64114;48.726;9.370;2022-11-20T00:13:31;98240.28;;;7.22;100.00
1077;BME280;64114;48.726;9.370;2022-11-20T00:16:04;98250.66;;;7.39;100.00
1077;BME280;64114;48.726;9.370;2022-11-20T00:18:33;98211.28;;;7.12;100.00
1077;BME280;64114;48.726;9.370;2022-11-20T00:21:02;98244.78;;;7.46;100.00
1077;BME280;64114;48.726;9.370;2022-11-20T00:23:30;98224.84;;;7.09;100.00
1077;BME280;64114;48.726;9.370;2022-11-20T00:26:01;98196.78;;;7.06;100.00
1077;BME280;64114;48.726;9.370;2022-11-20T00:28:29;98226.09;;;7.47;100.00
1077;BME280;64114;48.726;9.370;2022-11-20T00:31:03;98253.25;;;7.42;100.00
1077;BME280;64114;48.726;9.370;2022-11-20T00:33:32;98259.81;;;7.21;100.00
1077;BME280;64114;48.726;9.370;2022-11-20T00:36:02;98257.25;;;7.21;100.00
1077;BME280;64114;48.726;9.370;2022-11-20T00:38:31;98251.22;;;7.11;100.00
1077;BME280;64114;48.726;9.370;2022-11-20T00:41:03;98216.03;;;6.84;100.00
1077;BME280;64114;48.726;9.370;2022-11-20T00:43:31;98171.66;;;6.65;100.00
1077;BME280;64114;48.726;9.370;2022-11-20T00:46:00;98255.53;;;7.17;100.00
1077;BME280;64114;48.726;9.370;2022-11-20T00:48:30;98246.81;;;6.99;100.00
1077;BME280;64114;48.726;9.370;2022-11-20T00:50:59;98260.56;;;7.12;100.00
1077;BME280;64114;48.726;9.370;2022-11-20T00:53:27;98247.69;;;7.01;100.00
1077;BME280;64114;48.726;9.370;2022-11-20T00:55:58;98258.84;;;7.10;100.00
1077;BME280;64114;48.726;9.370;2022-11-20T00:58:29;98249.28;;;6.93;100.00
1077;BME280;64114;48.726;9.370;2022-11-20T01:01:01;98264.81;;;7.10;100.00
1077;BME280;64114;48.726;9.370;2022-11-20T01:03:32;98275.00;;;7.10;100.00
1077;BME280;64114;48.726;9.370;2022-11-20T01:06:01;98252.91;;;7.09;100.00
1077;BME280;64114;48.726;9.370;2022-11-20T01:08:30;98240.31;;;7.26;100.00
1077;BME280;64114;48.726;9.370;2022-11-20T01:11:00;98200.72;;;6.81;100.00
1077;BME280;64114;48.726;9.370;2022-11-20T01:13:29;98232.72;;;7.29;100.00
1077;BME280;64114;48.726;9.370;2022-11-20T01:16:08;98274.66;;;7.56;100.00
1077;BME280;64114;48.726;9.370;2022-11-20T01:18:38;98251.22;;;7.13;100.00
1077;BME280;64114;48.726;9.370;2022-11-20T01:21:08;98284.94;;;7.67;100.00
1077;BME280;64114;48.726;9.370;2022-11-20T01:23:39;98285.09;;;7.83;100.00
1077;BME280;64114;48.726;9.370;2022-11-20T01:26:08;98227.47;;;7.17;100.00
1077;BME280;64114;48.726;9.370;2022-11-20T01:28:37;98275.47;;;7.54;100.00
1077;BME280;64114;48.726;9.370;2022-11-20T01:31:11;98286.59;;;7.60;100.00
1077;BME280;64114;48.726;9.370;2022-11-20T01:33:42;98290.03;;;7.64;100.00
1077;BME280;64114;48.726;9.370;2022-11-20T01:36:11;98277.81;;;7.34;100.00
1077;BME280;64114;48.726;9.370;2022-11-20T01:38:40;98283.66;;;7.26;100.00
1077;BME280;64114;48.726;9.370;2022-11-20T01:41:08;98244.34;;;7.06;100.00
1077;BME280;64114;48.726;9.370;2022-11-20T01:43:36;98265.59;;;7.06;100.00
1077;BME280;64114;48.726;9.370;2022-11-20T01:46:15;98287.84;;;7.20;100.00
1077;BME280;64114;48.726;9.370;2022-11-20T01:48:49;98232.31;;;6.95;100.00
1077;BME280;64114;48.726;9.370;2022-11-20T01:51:25;98239.94;;;6.92;100.00
1077;BME280;64114;48.726;9.370;2022-11-20T01:53:57;98276.09;;;7.34;100.00
1077;BME280;64114;48.726;9.370;2022-11-20T01:56:27;98276.28;;;7.53;100.00
1077;BME280;64114;48.726;9.370;2022-11-20T01:58:58;98259.97;;;7.34;100.00
1077;BME280;64114;48.726;9.370;2022-11-20T02:01:27;98277.94;;;7.48;100.00
1077;BME280;64114;48.726;9.370;2022-11-20T02:03:58;98262.81;;;7.63;100.00
1077;BME280;64114;48.726;9.370;2022-11-20T02:06:29;98215.53;;;7.13;100.00
1077;BME280;64114;48.726;9.370;2022-11-20T02:08:58;98260.13;;;7.49;100.00
1077;BME280;64114;48.726;9.370;2022-11-20T02:11:26;98282.25;;;7.52;100.00
1077;BME280;64114;48.726;9.370;2022-11-20T02:13:54;98281.16;;;7.29;100.00
1077;BME280;64114;48.726;9.370;2022-11-20T02:16:25;98255.38;;;7.03;100.00
1077;BME280;64114;48.726;9.370;2022-11-20T02:18:55;98183.59;;;6.70;100.00
1077;BME280;64114;48.726;9.370;2022-11-20T02:21:30;98288.69;;;7.20;100.00
1077;BME280;64114;48.726;9.370;2022-11-20T02:24:07;98296.63;;;7.47;100.00
1077;BME280;64114;48.726;9.370;2022-11-20T02:26:44;98266.91;;;7.47;100.00
1077;BME280;64114;48.726;9.370;2022-11-20T02:29:16;98288.22;;;7.52;100.00
1077;BME280;64114;48.726;9.370;2022-11-20T02:31:46;98281.13;;;7.26;100.00
1077;BME280;64114;48.726;9.370;2022-11-20T02:34:14;98268.06;;;7.01;100.00
1077;BME280;64114;48.726;9.370;2022-11-20T02:36:44;98283.41;;;7.03;100.00
1077;BME280;64114;48.726;9.370;2022-11-20T02:39:15;98240.66;;;6.80;100.00
1077;BME280;64114;48.726;9.370;2022-11-20T02:41:44;98265.50;;;6.98;100.00
1077;BME280;64114;48.726;9.370;2022-11-20T02:44:12;98292.59;;;6.92;100.00
1077;BME280;64114;48.726;9.370;2022-11-20T02:46:40;98165.47;;;6.44;100.00
1077;BME280;64114;48.726;9.370;2022-11-20T02:49:08;98223.16;;;7.10;100.00
1077;BME280;64114;48.726;9.370;2022-11-20T02:51:36;98237.00;;;7.34;100.00
1077;BME280;64114;48.726;9.370;2022-11-20T02:54:04;98259.19;;;7.42;100.00
1077;BME280;64114;48.726;9.370;2022-11-20T02:56:33;98282.97;;;7.41;100.00
1077;BME280;64114;48.726;9.370;2022-11-20T02:59:01;98277.81;;;7.34;100.00
1077;BME280;64114;48.726;9.370;2022-11-20T03:01:29;98283.63;;;7.22;100.00
1077;BME280;64114;48.726;9.370;2022-11-20T03:03:57;98286.78;;;7.04;100.00
1077;BME280;64114;48.726;9.370;2022-11-20T03:06:25;98233.69;;;6.67;100.00
1077;BME280;64114;48.726;9.370;2022-11-20T03:08:53;98267.63;;;6.66;100.00
1077;BME280;64114;48.726;9.370;2022-11-20T03:11:21;98284.72;;;6.75;100.00
1077;BME280;64114;48.726;9.370;2022-11-20T03:13:51;98285.72;;;6.86;100.00
1077;BME280;64114;48.726;9.370;2022-11-20T03:16:20;98267.44;;;7.18;100.00
1077;BME280;64114;48.726;9.370;2022-11-20T03:18:51;98223.16;;;7.10;100.00
1077;BME280;64114;48.726;9.370;2022-11-20T03:21:19;98191.72;;;6.41;100.00
1077;BME280;64114;48.726;9.370;2022-11-20T03:23:48;98238.09;;;6.80;100.00
1077;BME280;64114;48.726;9.370;2022-11-20T03:26:17;98241.34;;;6.70;100.00
1077;BME280;64114;48.726;9.370;2022-11-20T03:28:48;98210.50;;;6.48;100.00
1077;BME280;64114;48.726;9.370;2022-11-20T03:31:19;98254.94;;;6.69;100.00
1077;BME280;64114;48.726;9.370;2022-11-20T03:33:48;98206.56;;;6.72;100.00
1077;BME280;64114;48.726;9.370;2022-11-20T03:36:18;98268.75;;;6.88;100.00
1077;BME280;64114;48.726;9.370;2022-11-20T03:38:48;98267.09;;;6.89;100.00
1077;BME280;64114;48.726;9.370;2022-11-20T03:41:17;98249.91;;;6.75;100.00
1077;BME280;64114;48.726;9.370;2022-11-20T03:43:47;98285.19;;;7.12;100.00
1077;BME280;64114;48.726;9.370;2022-11-20T03:46:18;98271.53;;;7.05;100.00
1077;BME280;64114;48.726;9.370;2022-11-20T03:48:46;98238.84;;;6.75;100.00
1077;BME280;64114;48.726;9.370;2022-11-20T03:51:19;98257.56;;;6.75;100.00
1077;BME280;64114;48.726;9.370;2022-11-20T03:53:48;98269.38;;;6.70;100.00
1077;BME280;64114;48.726;9.370;2022-11-20T03:56:19;98262.06;;;6.96;100.00
1077;BME280;64114;48.726;9.370;2022-11-20T03:58:48;98253.31;;;6.74;100.00
1077;BME280;64114;48.726;9.370;2022-11-20T04:01:20;98282.19;;;6.76;100.00
1077;BME280;64114;48.726;9.370;2022-11-20T04:03:49;98261.59;;;6.61;100.00
1077;BME280;64114;48.726;9.370;2022-11-20T04:06:18;98273.56;;;6.66;100.00
1077;BME280;64114;48.726;9.370;2022-11-20T04:08:47;98261.97;;;6.89;100.00
1077;BME280;64114;48.726;9.370;2022-11-20T04:11:21;98273.28;;;7.11;100.00
1077;BME280;64114;48.726;9.370;2022-11-20T04:13:51;98258.97;;;7.22;100.00
1077;BME280;64114;48.726;9.370;2022-11-20T04:16:22;98274.38;;;7.30;100.00
1077;BME280;64114;48.726;9.370;2022-11-20T04:18:52;98254.50;;;7.03;100.00
1077;BME280;64114;48.726;9.370;2022-11-20T04:21:21;98267.19;;;6.99;100.00
1077;BME280;64114;48.726;9.370;2022-11-20T04:23:49;98203.22;;;6.76;100.00
1077;BME280;64114;48.726;9.370;2022-11-20T04:26:17;98219.50;;;6.88;100.00
1077;BME280;64114;48.726;9.370;2022-11-20T04:28:45;98232.91;;;6.74;100.00
1077;BME280;64114;48.726;9.370;2022-11-20T04:31:15;98237.13;;;6.72;100.00
1077;BME280;64114;48.726;9.370;2022-11-20T04:33:45;98259.84;;;7.24;100.00
1077;BME280;64114;48.726;9.370;2022-11-20T04:36:16;98265.94;;;7.36;100.00
1077;BME280;64114;48.726;9.370;2022-11-20T04:38:45;98255.38;;;7.03;100.00
1077;BME280;64114;48.726;9.370;2022-11-20T04:41:22;98230.59;;;6.93;100.00
1077;BME280;64114;48.726;9.370;2022-11-20T04:43:52;98262.06;;;6.95;100.00
1077;BME280;64114;48.726;9.370;2022-11-20T04:46:20;98233.84;;;6.81;100.00
1077;BME280;64114;48.726;9.370;2022-11-20T04:48:50;98215.81;;;6.64;100.00
1077;BME280;64114;48.726;9.370;2022-11-20T04:51:18;98185.00;;;6.45;100.00
1077;BME280;64114;48.726;9.370;2022-11-20T04:53:46;98260.34;;;6.95;100.00
1077;BME280;64114;48.726;9.370;2022-11-20T04:56:14;98262.06;;;6.96;100.00
1077;BME280;64114;48.726;9.370;2022-11-20T04:58:42;98243.34;;;6.93;100.00
1077;BME280;64114;48.726;9.370;2022-11-20T05:01:12;98261.56;;;7.24;100.00
1077;BME280;64114;48.726;9.370;2022-11-20T05:03:41;98152.13;;;6.64;99.83
1077;BME280;64114;48.726;9.370;2022-11-20T05:06:14;98239.59;;;7.37;98.59
1077;BME280;64114;48.726;9.370;2022-11-20T05:08:43;98247.91;;;7.19;100.00
1077;BME280;64114;48.726;9.370;2022-11-20T05:11:12;98255.47;;;7.12;100.00
1077;BME280;64114;48.726;9.370;2022-11-20T05:13:41;98232.31;;;6.94;100.00
1077;BME280;64114;48.726;9.370;2022-11-20T05:16:10;98254.84;;;7.34;99.82
1077;BME280;64114;48.726;9.370;2022-11-20T05:18:39;98248.63;;;7.10;100.00
1077;BME280;64114;48.726;9.370;2022-11-20T05:21:08;98253.97;;;7.33;100.00
1077;BME280;64114;48.726;9.370;2022-11-20T05:23:38;98251.47;;;7.35;100.00
1077;BME280;64114;48.726;9.370;2022-11-20T05:26:08;98240.91;;;7.04;100.00
1077;BME280;64114;48.726;9.370;2022-11-20T05:28:39;98227.28;;;7.00;100.00
1077;BME280;64114;48.726;9.370;2022-11-20T05:31:08;98258.03;;;7.14;100.00
1077;BME280;64114;48.726;9.370;2022-11-20T05:33:39;98261.72;;;7.42;100.00
1077;BME280;64114;48.726;9.370;2022-11-20T05:36:08;98252.97;;;7.15;98.62
1077;BME280;64114;48.726;9.370;2022-11-20T05:38:37;98266.47;;;7.10;99.31
1077;BME280;64114;48.726;9.370;2022-11-20T05:41:06;98242.72;;;7.12;97.79
1077;BME280;64114;48.726;9.370;2022-11-20T05:43:36;98234.59;;;7.48;96.11
1077;BME280;64114;48.726;9.370;2022-11-20T05:46:06;98240.38;;;7.29;96.73
1077;BME280;64114;48.726;9.370;2022-11-20T05:48:34;98240.47;;;7.39;97.06
1077;BME280;64114;48.726;9.370;2022-11-20T05:51:04;98253.38;;;7.54;97.07
1077;BME280;64114;48.726;9.370;2022-11-20T05:53:33;98216.59;;;7.34;94.79
1077;BME280;64114;48.726;9.370;2022-11-20T05:56:04;98244.53;;;7.21;96.34
1077;BME280;64114;48.726;9.370;2022-11-20T05:58:32;98241.31;;;7.38;95.35
1077;BME280;64114;48.726;9.370;2022-11-20T06:01:05;98238.03;;;7.51;97.28
1077;BME280;64114;48.726;9.370;2022-11-20T06:03:33;98202.69;;;7.04;97.34
1077;BME280;64114;48.726;9.370;2022-11-20T06:06:02;98194.88;;;6.88;99.16
1077;BME280;64114;48.726;9.370;2022-11-20T06:08:31;98226.38;;;6.96;98.26
1077;BME280;64114;48.726;9.370;2022-11-20T06:11:04;98222.41;;;7.19;98.92
1077;BME280;64114;48.726;9.370;2022-11-20T06:13:33;98253.31;;;7.50;95.28
1077;BME280;64114;48.726;9.370;2022-11-20T06:16:07;98255.78;;;7.43;95.61
1077;BME280;64114;48.726;9.370;2022-11-20T06:18:35;98254.84;;;7.35;96.47
1077;BME280;64114;48.726;9.370;2022-11-20T06:21:04;98250.75;;;7.50;96.60
1077;BME280;64114;48.726;9.370;2022-11-20T06:23:33;98246.50;;;7.47;96.27
1077;BME280;64114;48.726;9.370;2022-11-20T06:26:04;98195.00;;;6.99;94.86
1077;BME280;64114;48.726;9.370;2022-11-20T06:28:32;98250.78;;;7.53;93.46
1077;BME280;64114;48.726;9.370;2022-11-20T06:31:00;98253.41;;;7.57;94.76
1077;BME280;64114;48.726;9.370;2022-11-20T06:33:28;98230.16;;;7.28;95.40
1077;BME280;64114;48.726;9.370;2022-11-20T06:35:56;98258.38;;;7.47;96.38
1077;BME280;64114;48.726;9.370;2022-11-20T06:38:29;98218.88;;;7.07;97.06
1077;BME280;64114;48.726;9.370;2022-11-20T06:40:57;98259.19;;;7.41;96.65
1077;BME280;64114;48.726;9.370;2022-11-20T06:43:26;98242.00;;;7.24;95.56
1077;BME280;64114;48.726;9.370;2022-11-20T06:45:57;98262.69;;;7.49;95.39
1077;BME280;64114;48.726;9.370;2022-11-20T06:48:26;98242.22;;;7.43;94.41
1077;BME280;64114;48.726;9.370;2022-11-20T06:50:54;98260.28;;;7.66;93.09
1077;BME280;64114;48.726;9.370;2022-11-20T06:53:22;98261.13;;;7.64;92.98
1077;BME280;64114;48.726;9.370;2022-11-20T06:55:51;98266.19;;;7.60;93.13
1077;BME280;64114;48.726;9.370;2022-11-20T06:58:19;98266.06;;;7.48;94.10
1077;BME280;64114;48.726;9.370;2022-11-20T07:00:48;98266.09;;;7.53;94.58
1077;BME280;64114;48.726;9.370;2022-11-20T07:03:16;98266.25;;;7.68;93.43
1077;BME280;64114;48.726;9.370;2022-11-20T07:05:44;98219.22;;;7.41;92.28
1077;BME280;64114;48.726;9.370;2022-11-20T07:08:12;98268.09;;;7.82;93.57
1077;BME280;64114;48.726;9.370;2022-11-20T07:10:40;98266.06;;;7.48;93.44
1077;BME280;64114;48.726;9.370;2022-11-20T07:13:07;98270.25;;;7.44;95.13
1077;BME280;64114;48.726;9.370;2022-11-20T07:15:35;98269.59;;;7.59;94.44
1077;BME280;64114;48.726;9.370;2022-11-20T07:18:04;98276.50;;;7.70;92.15
1077;BME280;64114;48.726;9.370;2022-11-20T07:20:32;98263.44;;;7.42;93.43
1077;BME280;64114;48.726;9.370;2022-11-20T07:23:00;98279.91;;;7.73;94.37
1077;BME280;64114;48.726;9.370;2022-11-20T07:25:28;98276.31;;;7.56;93.85
1077;BME280;64114;48.726;9.370;2022-11-20T07:27:56;98277.41;;;7.78;92.29
1077;BME280;64114;48.726;9.370;2022-11-20T07:30:24;98256.94;;;7.73;91.49
1077;BME280;64114;48.726;9.370;2022-11-20T07:32:53;98280.88;;;7.83;91.89
1077;BME280;64114;48.726;9.370;2022-11-20T07:35:23;98279.09;;;7.78;92.99
1077;BME280;64114;48.726;9.370;2022-11-20T07:37:51;98288.63;;;7.96;90.87
1077;BME280;64114;48.726;9.370;2022-11-20T07:40:19;98272.47;;;7.94;90.68
1077;BME280;64114;48.726;9.370;2022-11-20T07:42:48;98283.66;;;8.05;90.10
1077;BME280;64114;48.726;9.370;2022-11-20T07:45:16;98286.09;;;7.96;89.59
1077;BME280;64114;48.726;9.370;2022-11-20T07:47:44;98292.56;;;7.63;90.79
1077;BME280;64114;48.726;9.370;2022-11-20T07:50:12;98288.41;;;7.71;92.15
1077;BME280;64114;48.726;9.370;2022-11-20T07:52:41;98302.09;;;7.81;93.03
1077;BME280;64114;48.726;9.370;2022-11-20T07:55:10;98281.94;;;8.06;91.88
1077;BME280;64114;48.726;9.370;2022-11-20T07:57:38;98282.03;;;8.16;93.17
1077;BME280;64114;48.726;9.370;2022-11-20T08:00:09;98268.38;;;8.13;92.74
1077;BME280;64114;48.726;9.370;2022-11-20T08:02:41;98287.09;;;8.12;92.90
1077;BME280;64114;48.726;9.370;2022-11-20T08:05:09;98287.06;;;8.07;92.58
1077;BME280;64114;48.726;9.370;2022-11-20T08:07:38;98278.75;;;8.31;91.58
1077;BME280;64114;48.726;9.370;2022-11-20T08:10:09;98254.78;;;8.12;91.51
1077;BME280;64114;48.726;9.370;2022-11-20T08:12:43;98280.44;;;8.28;90.01
1077;BME280;64114;48.726;9.370;2022-11-20T08:15:29;98275.28;;;8.23;89.76
1077;BME280;64114;48.726;9.370;2022-11-20T08:18:01;98288.91;;;8.24;89.27
1077;BME280;64114;48.726;9.370;2022-11-20T08:20:49;98301.53;;;8.10;88.86
1077;BME280;64114;48.726;9.370;2022-11-20T08:23:17;98296.31;;;7.96;90.96
1077;BME280;64114;48.726;9.370;2022-11-20T08:25:49;98263.28;;;8.13;88.39
1077;BME280;64114;48.726;9.370;2022-11-20T08:28:17;98293.22;;;8.32;88.16
1077;BME280;64114;48.726;9.370;2022-11-20T08:30:48;98290.56;;;8.18;89.98
1077;BME280;64114;48.726;9.370;2022-11-20T08:33:17;98312.63;;;8.12;91.53
1077;BME280;64114;48.726;9.370;2022-11-20T08:35:45;98286.38;;;8.28;91.65
1077;BME280;64114;48.726;9.370;2022-11-20T08:38:13;98302.44;;;8.15;92.47
1077;BME280;64114;48.726;9.370;2022-11-20T08:40:41;98309.34;;;8.24;90.35
1077;BME280;64114;48.726;9.370;2022-11-20T08:43:30;98316.31;;;8.45;89.21
1077;BME280;64114;48.726;9.370;2022-11-20T08:45:58;98310.31;;;8.43;90.07
1077;BME280;64114;48.726;9.370;2022-11-20T08:48:26;98295.88;;;8.43;89.98
1077;BME280;64114;48.726;9.370;2022-11-20T08:50:57;98284.63;;;8.20;90.59
1077;BME280;64114;48.726;9.370;2022-11-20T08:53:25;98306.06;;;8.42;90.05
1077;BME280;64114;48.726;9.370;2022-11-20T08:55:53;98287.88;;;8.03;90.54
1077;BME280;64114;48.726;9.370;2022-11-20T08:58:21;98309.56;;;8.56;89.77
1077;BME280;64114;48.726;9.370;2022-11-20T09:00:50;98311.13;;;8.36;89.76
1077;BME280;64114;48.726;9.370;2022-11-20T09:03:19;98304.91;;;8.06;91.74
1077;BME280;64114;48.726;9.370;2022-11-20T09:05:47;98274.25;;;8.02;91.16
1077;BME280;64114;48.726;9.370;2022-11-20T09:08:15;98301.81;;;8.42;91.79
1077;BME280;64114;48.726;9.370;2022-11-20T09:10:43;98313.78;;;8.48;90.83
1077;BME280;64114;48.726;9.370;2022-11-20T09:13:11;98314.63;;;8.50;91.63
1077;BME280;64114;48.726;9.370;2022-11-20T09:15:39;98306.88;;;8.38;92.67
1077;BME280;64114;48.726;9.370;2022-11-20T09:18:08;98303.66;;;8.63;92.12
1077;BME280;64114;48.726;9.370;2022-11-20T09:20:36;98307.94;;;8.69;90.11
1077;BME280;64114;48.726;9.370;2022-11-20T09:23:03;98309.56;;;8.53;91.26
1077;BME280;64114;48.726;9.370;2022-11-20T09:25:33;98296.06;;;8.77;89.15
1077;BME280;64114;48.726;9.370;2022-11-20T09:28:00;98304.63;;;8.81;88.63
1077;BME280;64114;48.726;9.370;2022-11-20T09:30:28;98312.13;;;8.52;91.51
1077;BME280;64114;48.726;9.370;2022-11-20T09:32:57;98310.34;;;8.46;92.42
1077;BME280;64114;48.726;9.370;2022-11-20T09:35:26;98313.81;;;8.54;91.05
1077;BME280;64114;48.726;9.370;2022-11-20T09:37:54;98299.34;;;8.56;91.10
1077;BME280;64114;48.726;9.370;2022-11-20T09:40:24;98300.22;;;8.57;90.56
1077;BME280;64114;48.726;9.370;2022-11-20T09:42:56;98289.19;;;8.66;90.96
1077;BME280;64114;48.726;9.370;2022-11-20T09:45:37;98312.22;;;8.73;91.40
1077;BME280;64114;48.726;9.370;2022-11-20T09:48:18;98330.16;;;8.75;91.46
1077;BME280;64114;48.726;9.370;2022-11-20T09:50:56;98320.75;;;8.71;92.35
1077;BME280;64114;48.726;9.370;2022-11-20T09:53:32;98270.22;;;8.29;93.21
1077;BME280;64114;48.726;9.370;2022-11-20T09:56:03;98298.47;;;8.50;93.82
1077;BME280;64114;48.726;9.370;2022-11-20T09:58:35;98312.19;;;8.67;93.12
1077;BME280;64114;48.726;9.370;2022-11-20T10:01:10;98289.78;;;8.26;94.68
1077;BME280;64114;48.726;9.370;2022-11-20T10:03:51;98317.13;;;8.41;94.43
1077;BME280;64114;48.726;9.370;2022-11-20T10:06:29;98219.00;;;8.11;93.75
1077;BME280;64114;48.726;9.370;2022-11-20T10:09:03;98319.06;;;8.73;92.68
1077;BME280;64114;48.726;9.370;2022-11-20T10:11:45;98316.50;;;8.74;92.85
1077;BME280;64114;48.726;9.370;2022-11-20T10:14:21;98325.91;;;8.77;93.77
1077;BME280;64114;48.726;9.370;2022-11-20T10:17:02;98264.38;;;8.44;93.51
1077;BME280;64114;48.726;9.370;2022-11-20T10:19:47;98315.75;;;8.92;92.81
1077;BME280;64114;48.726;9.370;2022-11-20T10:22:32;98325.16;;;8.97;91.81
1077;BME280;64114;48.726;9.370;2022-11-20T10:25:06;98282.41;;;8.71;92.50
1077;BME280;64114;48.726;9.370;2022-11-20T10:27:53;98323.31;;;8.74;92.73
1077;BME280;64114;48.726;9.370;2022-11-20T10:30:24;98318.22;;;8.78;91.90
1077;BME280;64114;48.726;9.370;2022-11-20T10:32:54;98266.03;;;8.41;92.06
1077;BME280;64114;48.726;9.370;2022-11-20T10:35:28;98321.59;;;8.70;92.47
1077;BME280;64114;48.726;9.370;2022-11-20T10:38:04;98325.84;;;8.72;93.52
1077;BME280;64114;48.726;9.370;2022-11-20T10:40:38;98297.63;;;8.52;94.17
1077;BME280;64114;48.726;9.370;2022-11-20T10:43:12;98294.03;;;8.28;94.47
1077;BME280;64114;48.726;9.370;2022-11-20T10:45:48;98327.41;;;8.45;96.22
1077;BME280;64114;48.726;9.370;2022-11-20T10:48:21;98330.72;;;8.35;97.91
1077;BME280;64114;48.726;9.370;2022-11-20T10:50:57;98329.78;;;8.27;99.30
1077;BME280;64114;48.726;9.370;2022-11-20T10:54:03;98335.53;;;8.02;100.00
1077;BME280;64114;48.726;9.370;2022-11-20T10:56:38;98328.63;;;7.94;100.00
1077;BME280;64114;48.726;9.370;2022-11-20T10:59:35;98338.06;;;8.01;100.00
1077;BME280;64114;48.726;9.370;2022-11-20T11:02:17;98319.16;;;7.85;100.00
1077;BME280;64114;48.726;9.370;2022-11-20T11:04:47;98332.72;;;7.79;100.00
1077;BME280;64114;48.726;9.370;2022-11-20T11:07:17;98327.00;;;8.00;100.00
1077;BME280;64114;48.726;9.370;2022-11-20T11:09:50;98331.03;;;7.81;100.00
1077;BME280;64114;48.726;9.370;2022-11-20T11:12:19;98307.09;;;7.70;100.00
1077;BME280;64114;48.726;9.370;2022-11-20T11:14:51;98315.72;;;7.83;100.00
1077;BME280;64114;48.726;9.370;2022-11-20T11:17:30;98314.31;;;8.10;100.00
1077;BME280;64114;48.726;9.370;2022-11-20T11:20:06;98295.53;;;8.03;100.00
1077;BME280;64114;48.726;9.370;2022-11-20T11:22:44;98307.56;;;8.16;100.00
1077;BME280;64114;48.726;9.370;2022-11-20T11:25:25;98241.78;;;7.89;100.00
1077;BME280;64114;48.726;9.370;2022-11-20T11:27:57;98303.19;;;8.04;100.00
1077;BME280;64114;48.726;9.370;2022-11-20T11:30:41;98295.56;;;8.08;100.00
1077;BME280;64114;48.726;9.370;2022-11-20T11:33:11;98286.19;;;8.05;100.00
1077;BME280;64114;48.726;9.370;2022-11-20T11:35:44;98214.31;;;7.58;100.00
1077;BME280;64114;48.726;9.370;2022-11-20T11:38:21;98293.06;;;8.14;100.00
1077;BME280;64114;48.726;9.370;2022-11-20T11:40:53;98282.88;;;8.15;100.00
1077;BME280;64114;48.726;9.370;2022-11-20T11:43:37;98194.81;;;7.68;100.00
1077;BME280;64114;48.726;9.370;2022-11-20T11:46:32;98268.53;;;8.31;100.00
1077;BME280;64114;48.726;9.370;2022-11-20T11:49:08;98254.91;;;8.32;100.00
1077;BME280;64114;48.726;9.370;2022-11-20T11:54:31;98265.84;;;8.16;100.00
1077;BME280;64114;48.726;9.370;2022-11-20T11:57:09;98259.19;;;8.35;100.00
1077;BME280;64114;48.726;9.370;2022-11-20T11:59:56;98230.25;;;8.33;100.00
1077;BME280;64114;48.726;9.370;2022-11-20T12:02:36;98260.22;;;8.65;100.00
1077;BME280;64114;48.726;9.370;2022-11-20T12:05:13;98255.31;;;9.05;100.00
1077;BME280;64114;48.726;9.370;2022-11-20T12:07:47;98250.31;;;9.38;99.28
1077;BME280;64114;48.726;9.370;2022-11-20T12:10:20;98246.81;;;9.10;98.08
1077;BME280;64114;48.726;9.370;2022-11-20T12:12:54;98243.53;;;9.53;93.55
1077;BME280;64114;48.726;9.370;2022-11-20T12:15:29;98243.56;;;9.74;88.83
1077;BME280;64114;48.726;9.370;2022-11-20T12:17:58;98206.81;;;9.26;90.38
1077;BME280;64114;48.726;9.370;2022-11-20T12:20:29;98243.53;;;9.60;90.38
1077;BME280;64114;48.726;9.370;2022-11-20T12:23:07;98197.44;;;9.35;89.61
1077;BME280;64114;48.726;9.370;2022-11-20T12:25:38;98192.31;;;9.32;90.11
1077;BME280;64114;48.726;9.370;2022-11-20T12:28:24;98228.19;;;9.79;88.64
1077;BME280;64114;48.726;9.370;2022-11-20T12:31:11;98204.31;;;9.85;86.78
1077;BME280;64114;48.726;9.370;2022-11-20T12:33:54;98226.47;;;10.23;86.83
1077;BME280;64114;48.726;9.370;2022-11-20T12:36:37;98215.38;;;10.12;86.54
1077;BME280;64114;48.726;9.370;2022-11-20T12:39:24;98222.22;;;10.36;87.37
1077;BME280;64114;48.726;9.370;2022-11-20T12:42:08;98205.94;;;10.57;82.73
1077;BME280;64114;48.726;9.370;2022-11-20T12:48:10;98206.00;;;10.20;83.30
1077;BME280;64114;48.726;9.370;2022-11-20T12:50:51;98221.38;;;10.12;80.71
1077;BME280;64114;48.726;9.370;2022-11-20T12:53:54;98222.22;;;10.11;78.63
1077;BME280;64114;48.726;9.370;2022-11-20T12:56:35;98187.22;;;9.45;79.16
1077;BME280;64114;48.726;9.370;2022-11-20T12:59:26;98175.28;;;9.56;78.82
1077;BME280;64114;48.726;9.370;2022-11-20T13:01:58;98178.72;;;9.68;76.38
1077;BME280;64114;48.726;9.370;2022-11-20T13:04:43;98223.94;;;10.01;76.66
1077;BME280;64114;48.726;9.370;2022-11-20T13:07:17;98223.09;;;9.82;76.17
1077;BME280;64114;48.726;9.370;2022-11-20T13:09:49;98184.66;;;9.54;74.49
1077;BME280;64114;48.726;9.370;2022-11-20T13:12:24;98217.13;;;9.99;74.49
1077;BME280;64114;48.726;9.370;2022-11-20T13:15:00;98222.22;;;10.11;75.60
1077;BME280;64114;48.726;9.370;2022-11-20T13:17:36;98223.91;;;10.26;74.67
1077;BME280;64114;48.726;9.370;2022-11-20T13:20:15;98208.59;;;10.00;75.69
1077;BME280;64114;48.726;9.370;2022-11-20T13:22:45;98140.28;;;10.00;75.98
1077;BME280;64114;48.726;9.370;2022-11-20T13:25:23;98198.28;;;10.37;75.77
1077;BME280;64114;48.726;9.370;2022-11-20T13:27:52;98217.06;;;10.58;74.38
1077;BME280;64114;48.726;9.370;2022-11-20T13:30:22;98210.28;;;10.22;74.90
1077;BME280;64114;48.726;9.370;2022-11-20T13:32:54;98223.97;;;9.89;74.79
1077;BME280;64114;48.726;9.370;2022-11-20T13:35:28;98214.56;;;10.08;74.41
1077;BME280;64114;48.726;9.370;2022-11-20T13:38:08;98201.69;;;10.45;74.22
1077;BME280;64114;48.726;9.370;2022-11-20T13:40:38;98160.78;;;10.05;72.67
1077;BME280;64114;48.726;9.370;2022-11-20T13:43:15;98186.34;;;10.31;72.75
1077;BME280;64114;48.726;9.370;2022-11-20T13:45:55;98164.94;;;10.45;73.30